sensor_id;sensor_type;location;lat;lon;timestamp;pressure;altitude;pressure_sealevel;temperature;humidity
76124;BME280;65173;48.066;20.976;2023-04-15T00:01:02;99535.63;;;5.38;100.00
76124;BME280;65173;48.066;20.976;2023-04-15T00:04:05;99532.81;;;5.34;100.00
76124;BME280;65173;48.066;20.976;2023-04-15T00:07:08;99539.69;;;5.57;100.00
76124;BME280;65173;48.066;20.976;2023-04-15T00:10:12;99535.19;;;5.72;100.00
76124;BME280;65173;48.066;20.976;2023-04-15T00:13:15;99533.44;;;5.67;100.00
76124;BME280;65173;48.066;20.976;2023-04-15T00:16:18;99537.41;;;5.78;100.00
76124;BME280;65173;48.066;20.976;2023-04-15T00:19:21;99533.19;;;5.91;100.00
76124;BME280;65173;48.066;20.976;2023-04-15T00:22:26;99539.03;;;6.02;100.00
76124;BME280;65173;48.066;20.976;2023-04-15T00:25:29;99544.34;;;6.10;100.00
76124;BME280;65173;48.066;20.976;2023-04-15T00:28:31;99542.50;;;5.88;100.00
76124;BME280;65173;48.066;20.976;2023-04-15T00:31:35;99541.84;;;6.05;100.00
76124;BME280;65173;48.066;20.976;2023-04-15T00:34:38;99535.22;;;5.94;100.00
76124;BME280;65173;48.066;20.976;2023-04-15T00:37:42;99539.91;;;5.97;100.00
76124;BME280;65173;48.066;20.976;2023-04-15T00:40:47;99540.94;;;6.10;100.00
76124;BME280;65173;48.066;20.976;2023-04-15T00:43:51;99527.41;;;6.11;100.00
76124;BME280;65173;48.066;20.976;2023-04-15T00:46:54;99531.09;;;6.24;100.00
76124;BME280;65173;48.066;20.976;2023-04-15T00:49:57;99528.97;;;6.35;100.00
76124;BME280;65173;48.066;20.976;2023-04-15T00:53:00;99527.94;;;6.44;100.00
76124;BME280;65173;48.066;20.976;2023-04-15T00:56:03;99527.31;;;6.47;100.00
76124;BME280;65173;48.066;20.976;2023-04-15T00:59:07;99527.28;;;6.39;100.00
76124;BME280;65173;48.066;20.976;2023-04-15T01:02:10;99523.88;;;6.47;100.00
76124;BME280;65173;48.066;20.976;2023-04-15T01:05:13;99524.97;;;6.46;100.00
76124;BME280;65173;48.066;20.976;2023-04-15T01:08:18;99523.94;;;6.55;100.00
76124;BME280;65173;48.066;20.976;2023-04-15T01:11:22;99527.09;;;6.66;100.00
76124;BME280;65173;48.066;20.976;2023-04-15T01:14:25;99521.66;;;6.63;100.00
76124;BME280;65173;48.066;20.976;2023-04-15T01:17:28;99521.47;;;6.59;100.00
76124;BME280;65173;48.066;20.976;2023-04-15T01:20:31;99520.69;;;6.58;100.00
76124;BME280;65173;48.066;20.976;2023-04-15T01:23:36;99526.31;;;6.66;100.00
76124;BME280;65173;48.066;20.976;2023-04-15T01:26:41;99535.25;;;6.78;100.00
76124;BME280;65173;48.066;20.976;2023-04-15T01:29:45;99547.09;;;6.81;100.00
76124;BME280;65173;48.066;20.976;2023-04-15T01:32:49;99544.91;;;6.74;100.00
76124;BME280;65173;48.066;20.976;2023-04-15T01:35:53;99549.03;;;6.58;100.00
76124;BME280;65173;48.066;20.976;2023-04-15T01:38:59;99549.53;;;6.38;100.00
76124;BME280;65173;48.066;20.976;2023-04-15T01:42:03;99542.00;;;6.31;100.00
76124;BME280;65173;48.066;20.976;2023-04-15T01:45:07;99536.59;;;6.36;100.00
76124;BME280;65173;48.066;20.976;2023-04-15T01:48:12;99541.22;;;6.31;100.00
76124;BME280;65173;48.066;20.976;2023-04-15T01:51:14;99538.16;;;6.15;100.00
76124;BME280;65173;48.066;20.976;2023-04-15T01:54:18;99528.00;;;6.31;100.00
76124;BME280;65173;48.066;20.976;2023-04-15T01:57:21;99526.09;;;6.22;100.00
76124;BME280;65173;48.066;20.976;2023-04-15T02:00:24;99525.41;;;6.39;100.00
76124;BME280;65173;48.066;20.976;2023-04-15T02:03:27;99536.53;;;6.27;100.00
76124;BME280;65173;48.066;20.976;2023-04-15T02:06:31;99528.00;;;6.31;100.00
76124;BME280;65173;48.066;20.976;2023-04-15T02:09:34;99526.91;;;6.32;100.00
76124;BME280;65173;48.066;20.976;2023-04-15T02:12:37;99524.75;;;6.34;100.00
76124;BME280;65173;48.066;20.976;2023-04-15T02:15:40;99526.13;;;6.31;100.00
76124;BME280;65173;48.066;20.976;2023-04-15T02:18:49;99533.72;;;6.24;100.00
76124;BME280;65173;48.066;20.976;2023-04-15T02:21:53;99526.69;;;6.19;100.00
76124;BME280;65173;48.066;20.976;2023-04-15T02:24:56;99529.44;;;6.14;100.00
76124;BME280;65173;48.066;20.976;2023-04-15T02:27:59;99530.19;;;6.06;100.00
76124;BME280;65173;48.066;20.976;2023-04-15T02:31:06;99532.16;;;6.01;100.00
76124;BME280;65173;48.066;20.976;2023-04-15T02:34:09;99528.38;;;5.93;100.00
76124;BME280;65173;48.066;20.976;2023-04-15T02:37:13;99537.25;;;5.97;100.00
76124;BME280;65173;48.066;20.976;2023-04-15T02:40:16;99537.06;;;5.93;100.00
76124;BME280;65173;48.066;20.976;2023-04-15T02:43:20;99538.66;;;5.81;100.00
76124;BME280;65173;48.066;20.976;2023-04-15T02:46:24;99546.84;;;5.57;100.00
76124;BME280;65173;48.066;20.976;2023-04-15T02:49:28;99534.94;;;5.46;100.00
76124;BME280;65173;48.066;20.976;2023-04-15T02:52:32;99530.03;;;5.53;100.00
76124;BME280;65173;48.066;20.976;2023-04-15T02:55:35;99527.59;;;5.43;100.00
76124;BME280;65173;48.066;20.976;2023-04-15T02:58:38;99526.47;;;5.35;100.00
76124;BME280;65173;48.066;20.976;2023-04-15T03:01:42;99534.97;;;5.32;100.00
76124;BME280;65173;48.066;20.976;2023-04-15T03:04:45;99527.59;;;5.43;100.00
76124;BME280;65173;48.066;20.976;2023-04-15T03:07:48;99528.34;;;5.57;100.00
76124;BME280;65173;48.066;20.976;2023-04-15T03:10:51;99526.03;;;5.42;100.00
76124;BME280;65173;48.066;20.976;2023-04-15T03:13:56;99524.38;;;5.46;100.00
76124;BME280;65173;48.066;20.976;2023-04-15T03:17:05;99516.88;;;5.62;100.00
76124;BME280;65173;48.066;20.976;2023-04-15T03:20:08;99534.84;;;5.51;100.00
76124;BME280;65173;48.066;20.976;2023-04-15T03:23:12;99533.22;;;5.28;100.00
76124;BME280;65173;48.066;20.976;2023-04-15T03:26:28;99529.84;;;5.49;100.00
76124;BME280;65173;48.066;20.976;2023-04-15T03:29:44;99531.47;;;5.59;100.00
76124;BME280;65173;48.066;20.976;2023-04-15T03:32:51;99545.59;;;5.54;100.00
76124;BME280;65173;48.066;20.976;2023-04-15T03:35:54;99548.25;;;5.54;100.00
76124;BME280;65173;48.066;20.976;2023-04-15T03:38:58;99550.75;;;5.59;100.00
76124;BME280;65173;48.066;20.976;2023-04-15T03:42:01;99547.63;;;5.71;100.00
76124;BME280;65173;48.066;20.976;2023-04-15T03:45:05;99545.00;;;5.57;100.00
76124;BME280;65173;48.066;20.976;2023-04-15T03:48:08;99548.53;;;5.53;100.00
76124;BME280;65173;48.066;20.976;2023-04-15T03:51:18;99556.47;;;5.53;100.00
76124;BME280;65173;48.066;20.976;2023-04-15T03:54:21;99560.25;;;5.61;100.00
76124;BME280;65173;48.066;20.976;2023-04-15T03:57:24;99563.59;;;5.66;100.00
76124;BME280;65173;48.066;20.976;2023-04-15T04:00:27;99552.63;;;5.73;100.00
76124;BME280;65173;48.066;20.976;2023-04-15T04:03:30;99558.19;;;5.71;100.00
76124;BME280;65173;48.066;20.976;2023-04-15T04:06:33;99563.53;;;5.80;100.00
76124;BME280;65173;48.066;20.976;2023-04-15T04:09:35;99567.94;;;5.84;100.00
76124;BME280;65173;48.066;20.976;2023-04-15T04:12:40;99566.16;;;5.93;100.00
76124;BME280;65173;48.066;20.976;2023-04-15T04:15:43;99570.56;;;5.98;100.00
76124;BME280;65173;48.066;20.976;2023-04-15T04:18:45;99564.44;;;6.11;100.00
76124;BME280;65173;48.066;20.976;2023-04-15T04:21:49;99572.03;;;6.26;100.00
76124;BME280;65173;48.066;20.976;2023-04-15T04:24:51;99567.47;;;6.41;100.00
76124;BME280;65173;48.066;20.976;2023-04-15T04:27:54;99578.56;;;6.51;100.00
76124;BME280;65173;48.066;20.976;2023-04-15T04:30:57;99580.03;;;6.66;100.00
76124;BME280;65173;48.066;20.976;2023-04-15T04:34:01;99574.69;;;6.80;100.00
76124;BME280;65173;48.066;20.976;2023-04-15T04:37:03;99577.75;;;6.73;100.00
76124;BME280;65173;48.066;20.976;2023-04-15T04:40:07;99574.63;;;6.71;100.00
76124;BME280;65173;48.066;20.976;2023-04-15T04:43:10;99578.88;;;6.81;100.00
76124;BME280;65173;48.066;20.976;2023-04-15T04:46:13;99579.97;;;6.80;100.00
76124;BME280;65173;48.066;20.976;2023-04-15T04:49:16;99581.38;;;6.77;100.00
76124;BME280;65173;48.066;20.976;2023-04-15T04:52:19;99581.84;;;6.79;100.00
76124;BME280;65173;48.066;20.976;2023-04-15T04:55:22;99583.19;;;6.68;100.00
76124;BME280;65173;48.066;20.976;2023-04-15T04:58:24;99582.56;;;6.71;100.00
76124;BME280;65173;48.066;20.976;2023-04-15T05:01:27;99582.78;;;6.83;100.00
76124;BME280;65173;48.066;20.976;2023-04-15T05:04:30;99581.78;;;6.71;100.00
76124;BME280;65173;48.066;20.976;2023-04-15T05:07:33;99580.31;;;6.87;100.00
76124;BME280;65173;48.066;20.976;2023-04-15T05:10:36;99587.06;;;7.02;100.00
76124;BME280;65173;48.066;20.976;2023-04-15T05:13:39;99584.41;;;7.32;100.00
76124;BME280;65173;48.066;20.976;2023-04-15T05:16:41;99592.56;;;7.62;100.00
76124;BME280;65173;48.066;20.976;2023-04-15T05:19:44;99589.69;;;7.41;100.00
76124;BME280;65173;48.066;20.976;2023-04-15T05:22:47;99592.19;;;7.38;100.00
76124;BME280;65173;48.066;20.976;2023-04-15T05:25:49;99590.03;;;7.48;100.00
76124;BME280;65173;48.066;20.976;2023-04-15T05:28:52;99587.38;;;7.48;100.00
76124;BME280;65173;48.066;20.976;2023-04-15T05:31:55;99590.81;;;7.57;100.00
76124;BME280;65173;48.066;20.976;2023-04-15T05:34:58;99592.91;;;7.69;100.00
76124;BME280;65173;48.066;20.976;2023-04-15T05:38:01;99600.69;;;7.74;100.00
76124;BME280;65173;48.066;20.976;2023-04-15T05:41:04;99590.06;;;7.65;100.00
76124;BME280;65173;48.066;20.976;2023-04-15T05:44:06;99596.47;;;7.73;100.00
76124;BME280;65173;48.066;20.976;2023-04-15T05:47:10;99598.34;;;7.81;100.00
76124;BME280;65173;48.066;20.976;2023-04-15T05:50:12;99603.19;;;7.79;100.00
76124;BME280;65173;48.066;20.976;2023-04-15T05:53:15;99597.59;;;7.98;100.00
76124;BME280;65173;48.066;20.976;2023-04-15T05:56:18;99599.78;;;8.13;100.00
76124;BME280;65173;48.066;20.976;2023-04-15T05:59:22;99599.16;;;8.16;100.00
76124;BME280;65173;48.066;20.976;2023-04-15T06:02:24;99602.28;;;8.18;100.00
76124;BME280;65173;48.066;20.976;2023-04-15T06:05:28;99604.91;;;8.27;100.00
76124;BME280;65173;48.066;20.976;2023-04-15T06:08:30;99604.44;;;8.25;100.00
76124;BME280;65173;48.066;20.976;2023-04-15T06:11:33;99615.25;;;8.37;100.00
76124;BME280;65173;48.066;20.976;2023-04-15T06:14:36;99619.94;;;8.40;100.00
76124;BME280;65173;48.066;20.976;2023-04-15T06:17:40;99615.69;;;8.30;100.00
76124;BME280;65173;48.066;20.976;2023-04-15T06:20:42;99617.25;;;8.49;100.00
76124;BME280;65173;48.066;20.976;2023-04-15T06:23:45;99617.03;;;8.80;100.00
76124;BME280;65173;48.066;20.976;2023-04-15T06:26:48;99623.75;;;8.94;100.00
76124;BME280;65173;48.066;20.976;2023-04-15T06:29:51;99625.09;;;9.09;100.00
76124;BME280;65173;48.066;20.976;2023-04-15T06:32:54;99621.03;;;9.12;99.05
76124;BME280;65173;48.066;20.976;2023-04-15T06:35:57;99625.44;;;9.37;98.46
76124;BME280;65173;48.066;20.976;2023-04-15T06:39:00;99628.69;;;9.72;95.78
76124;BME280;65173;48.066;20.976;2023-04-15T06:42:03;99630.88;;;10.74;93.49
76124;BME280;65173;48.066;20.976;2023-04-15T06:45:06;99632.06;;;11.58;86.68
76124;BME280;65173;48.066;20.976;2023-04-15T06:48:10;99643.09;;;12.33;82.66
76124;BME280;65173;48.066;20.976;2023-04-15T06:51:13;99643.84;;;11.33;85.25
76124;BME280;65173;48.066;20.976;2023-04-15T06:54:16;99634.06;;;11.49;85.62
76124;BME280;65173;48.066;20.976;2023-04-15T06:57:18;99637.41;;;11.58;81.59
76124;BME280;65173;48.066;20.976;2023-04-15T07:00:21;99643.00;;;11.77;81.04
76124;BME280;65173;48.066;20.976;2023-04-15T07:03:24;99649.31;;;12.81;78.13
76124;BME280;65173;48.066;20.976;2023-04-15T07:06:27;99653.88;;;11.36;82.46
76124;BME280;65173;48.066;20.976;2023-04-15T07:09:30;99654.44;;;12.58;82.68
76124;BME280;65173;48.066;20.976;2023-04-15T07:12:34;99642.75;;;14.08;76.95
76124;BME280;65173;48.066;20.976;2023-04-15T07:15:37;99651.31;;;14.52;73.07
76124;BME280;65173;48.066;20.976;2023-04-15T07:18:40;99654.38;;;14.50;71.40
76124;BME280;65173;48.066;20.976;2023-04-15T07:21:42;99670.78;;;13.60;76.06
76124;BME280;65173;48.066;20.976;2023-04-15T07:24:45;99666.63;;;14.51;70.73
76124;BME280;65173;48.066;20.976;2023-04-15T07:27:48;99658.03;;;14.42;71.45
76124;BME280;65173;48.066;20.976;2023-04-15T07:30:51;99668.53;;;14.32;72.62
76124;BME280;65173;48.066;20.976;2023-04-15T07:33:54;99668.09;;;15.33;68.54
76124;BME280;65173;48.066;20.976;2023-04-15T07:36:57;99665.84;;;14.70;68.63
76124;BME280;65173;48.066;20.976;2023-04-15T07:40:00;99667.75;;;14.31;73.37
76124;BME280;65173;48.066;20.976;2023-04-15T07:43:03;99679.28;;;13.81;71.21
76124;BME280;65173;48.066;20.976;2023-04-15T07:46:05;99668.59;;;13.02;72.61
76124;BME280;65173;48.066;20.976;2023-04-15T07:49:09;99666.50;;;12.52;78.86
76124;BME280;65173;48.066;20.976;2023-04-15T07:52:11;99675.59;;;12.35;78.04
76124;BME280;65173;48.066;20.976;2023-04-15T07:55:14;99674.53;;;12.12;80.49
76124;BME280;65173;48.066;20.976;2023-04-15T07:58:20;99683.22;;;11.85;80.35
76124;BME280;65173;48.066;20.976;2023-04-15T08:01:23;99680.00;;;11.91;81.41
76124;BME280;65173;48.066;20.976;2023-04-15T08:04:25;99679.88;;;11.39;80.24
76124;BME280;65173;48.066;20.976;2023-04-15T08:07:29;99682.19;;;11.16;81.87
76124;BME280;65173;48.066;20.976;2023-04-15T08:10:32;99687.72;;;11.11;83.49
76124;BME280;65173;48.066;20.976;2023-04-15T08:13:35;99685.97;;;11.15;85.45
76124;BME280;65173;48.066;20.976;2023-04-15T08:16:38;99685.72;;;12.70;84.05
76124;BME280;65173;48.066;20.976;2023-04-15T08:19:42;99685.03;;;13.48;75.54
76124;BME280;65173;48.066;20.976;2023-04-15T08:22:44;99682.78;;;14.74;69.04
76124;BME280;65173;48.066;20.976;2023-04-15T08:25:49;99686.03;;;16.31;67.36
76124;BME280;65173;48.066;20.976;2023-04-15T08:28:53;99689.94;;;14.47;69.82
76124;BME280;65173;48.066;20.976;2023-04-15T08:31:56;99690.22;;;13.72;72.12
76124;BME280;65173;48.066;20.976;2023-04-15T08:35:00;99697.28;;;14.50;72.24
76124;BME280;65173;48.066;20.976;2023-04-15T08:38:03;99680.34;;;14.66;67.03
76124;BME280;65173;48.066;20.976;2023-04-15T08:41:10;99688.81;;;14.48;69.28
76124;BME280;65173;48.066;20.976;2023-04-15T08:44:14;99692.75;;;14.54;71.03
76124;BME280;65173;48.066;20.976;2023-04-15T08:47:19;99695.22;;;14.09;70.86
76124;BME280;65173;48.066;20.976;2023-04-15T08:50:23;99687.63;;;15.30;69.76
76124;BME280;65173;48.066;20.976;2023-04-15T08:53:28;99682.84;;;15.92;64.87
76124;BME280;65173;48.066;20.976;2023-04-15T08:56:32;99679.94;;;17.01;64.92
76124;BME280;65173;48.066;20.976;2023-04-15T08:59:35;99683.88;;;15.57;64.21
76124;BME280;65173;48.066;20.976;2023-04-15T09:02:39;99688.38;;;14.66;67.55
76124;BME280;65173;48.066;20.976;2023-04-15T09:05:43;99677.63;;;17.03;66.80
76124;BME280;65173;48.066;20.976;2023-04-15T09:08:46;99682.97;;;16.62;62.88
76124;BME280;65173;48.066;20.976;2023-04-15T09:11:49;99678.38;;;16.33;59.72
76124;BME280;65173;48.066;20.976;2023-04-15T09:14:53;99684.34;;;17.23;60.22
76124;BME280;65173;48.066;20.976;2023-04-15T09:17:56;99681.72;;;17.30;58.79
76124;BME280;65173;48.066;20.976;2023-04-15T09:21:07;99682.59;;;15.06;64.34
76124;BME280;65173;48.066;20.976;2023-04-15T09:24:10;99674.19;;;17.06;65.62
76124;BME280;65173;48.066;20.976;2023-04-15T09:27:16;99680.13;;;17.22;60.78
76124;BME280;65173;48.066;20.976;2023-04-15T09:30:19;99670.38;;;16.70;61.63
76124;BME280;65173;48.066;20.976;2023-04-15T09:33:22;99670.56;;;17.80;61.25
76124;BME280;65173;48.066;20.976;2023-04-15T09:36:26;99670.72;;;18.04;58.04
76124;BME280;65173;48.066;20.976;2023-04-15T09:39:50;99665.63;;;18.86;57.85
76124;BME280;65173;48.066;20.976;2023-04-15T09:42:54;99666.63;;;16.78;59.72
76124;BME280;65173;48.066;20.976;2023-04-15T09:45:58;99668.94;;;16.46;60.36
76124;BME280;65173;48.066;20.976;2023-04-15T09:49:07;99658.47;;;16.08;61.16
76124;BME280;65173;48.066;20.976;2023-04-15T09:52:13;99658.34;;;17.42;58.87
76124;BME280;65173;48.066;20.976;2023-04-15T09:55:17;99653.19;;;17.70;55.36
76124;BME280;65173;48.066;20.976;2023-04-15T09:58:21;99648.16;;;18.52;53.49
76124;BME280;65173;48.066;20.976;2023-04-15T10:01:25;99641.59;;;18.42;54.01
76124;BME280;65173;48.066;20.976;2023-04-15T10:04:29;99644.25;;;17.62;57.44
76124;BME280;65173;48.066;20.976;2023-04-15T10:07:32;99640.06;;;18.41;53.63
76124;BME280;65173;48.066;20.976;2023-04-15T10:10:35;99644.63;;;18.33;52.76
76124;BME280;65173;48.066;20.976;2023-04-15T10:13:39;99637.94;;;17.99;56.04
76124;BME280;65173;48.066;20.976;2023-04-15T10:16:46;99628.84;;;17.63;55.04
76124;BME280;65173;48.066;20.976;2023-04-15T10:19:53;99618.56;;;18.62;53.33
76124;BME280;65173;48.066;20.976;2023-04-15T10:22:56;99606.22;;;18.86;54.33
76124;BME280;65173;48.066;20.976;2023-04-15T10:25:59;99615.88;;;19.01;57.42
76124;BME280;65173;48.066;20.976;2023-04-15T10:29:03;99613.94;;;17.76;55.49
76124;BME280;65173;48.066;20.976;2023-04-15T10:32:06;99613.00;;;16.25;61.61
76124;BME280;65173;48.066;20.976;2023-04-15T10:35:10;99610.88;;;16.42;58.17
76124;BME280;65173;48.066;20.976;2023-04-15T10:38:43;99619.56;;;17.57;55.04
76124;BME280;65173;48.066;20.976;2023-04-15T10:42:07;99615.59;;;17.98;52.98
76124;BME280;65173;48.066;20.976;2023-04-15T10:45:15;99612.72;;;16.04;57.17
76124;BME280;65173;48.066;20.976;2023-04-15T10:48:19;99609.19;;;15.44;57.95
76124;BME280;65173;48.066;20.976;2023-04-15T10:51:27;99604.72;;;16.41;54.32
76124;BME280;65173;48.066;20.976;2023-04-15T10:54:31;99609.75;;;17.86;54.50
76124;BME280;65173;48.066;20.976;2023-04-15T10:57:37;99607.19;;;16.23;55.56
76124;BME280;65173;48.066;20.976;2023-04-15T11:00:49;99619.25;;;15.01;58.87
76124;BME280;65173;48.066;20.976;2023-04-15T11:04:00;99624.63;;;14.01;63.00
76124;BME280;65173;48.066;20.976;2023-04-15T11:07:36;99637.47;;;13.92;61.74
76124;BME280;65173;48.066;20.976;2023-04-15T11:13:50;99657.69;;;12.95;65.71
76124;BME280;65173;48.066;20.976;2023-04-15T11:16:54;99669.59;;;12.54;66.98
76124;BME280;65173;48.066;20.976;2023-04-15T11:19:57;99670.56;;;11.57;71.17
76124;BME280;65173;48.066;20.976;2023-04-15T11:23:00;99678.88;;;11.31;72.44
76124;BME280;65173;48.066;20.976;2023-04-15T11:26:16;99678.47;;;10.96;73.21
76124;BME280;65173;48.066;20.976;2023-04-15T11:29:19;99683.03;;;10.96;75.98
76124;BME280;65173;48.066;20.976;2023-04-15T11:32:22;99685.28;;;11.06;75.93
76124;BME280;65173;48.066;20.976;2023-04-15T11:35:25;99685.94;;;11.03;77.97
76124;BME280;65173;48.066;20.976;2023-04-15T11:38:29;99684.97;;;11.07;75.96
76124;BME280;65173;48.066;20.976;2023-04-15T11:41:32;99691.59;;;11.01;73.63
76124;BME280;65173;48.066;20.976;2023-04-15T11:44:37;99703.00;;;11.35;77.49
76124;BME280;65173;48.066;20.976;2023-04-15T11:47:41;99698.88;;;11.25;77.20
76124;BME280;65173;48.066;20.976;2023-04-15T11:50:44;99703.47;;;11.73;74.52
76124;BME280;65173;48.066;20.976;2023-04-15T11:53:48;99705.03;;;12.11;76.19
76124;BME280;65173;48.066;20.976;2023-04-15T11:56:52;99703.63;;;11.77;75.35
76124;BME280;65173;48.066;20.976;2023-04-15T11:59:56;99693.91;;;12.09;76.08
76124;BME280;65173;48.066;20.976;2023-04-15T12:06:31;99706.84;;;12.75;71.47
76124;BME280;65173;48.066;20.976;2023-04-15T12:09:37;99712.22;;;12.91;71.74
76124;BME280;65173;48.066;20.976;2023-04-15T12:12:39;99716.75;;;13.02;69.91
76124;BME280;65173;48.066;20.976;2023-04-15T12:15:42;99711.09;;;14.17;67.24
76124;BME280;65173;48.066;20.976;2023-04-15T12:18:47;99703.13;;;15.63;63.95
76124;BME280;65173;48.066;20.976;2023-04-15T12:21:56;99703.47;;;15.84;61.60
76124;BME280;65173;48.066;20.976;2023-04-15T12:25:02;99709.16;;;14.69;61.06
76124;BME280;65173;48.066;20.976;2023-04-15T12:28:11;99699.16;;;16.36;60.94
76124;BME280;65173;48.066;20.976;2023-04-15T12:31:14;99694.88;;;17.39;57.45
76124;BME280;65173;48.066;20.976;2023-04-15T12:34:30;99697.25;;;17.95;54.18
76124;BME280;65173;48.066;20.976;2023-04-15T12:37:33;99688.91;;;17.16;52.34
76124;BME280;65173;48.066;20.976;2023-04-15T12:40:36;99694.44;;;17.30;54.82
76124;BME280;65173;48.066;20.976;2023-04-15T12:43:39;99689.31;;;17.18;55.29
76124;BME280;65173;48.066;20.976;2023-04-15T12:46:42;99691.38;;;16.27;58.27
76124;BME280;65173;48.066;20.976;2023-04-15T12:49:45;99693.84;;;16.40;56.11
76124;BME280;65173;48.066;20.976;2023-04-15T12:52:48;99707.16;;;14.85;58.88
76124;BME280;65173;48.066;20.976;2023-04-15T12:55:51;99712.16;;;14.48;61.53
76124;BME280;65173;48.066;20.976;2023-04-15T12:58:54;99722.84;;;13.62;65.34
76124;BME280;65173;48.066;20.976;2023-04-15T13:01:57;99728.56;;;13.01;66.13
76124;BME280;65173;48.066;20.976;2023-04-15T13:05:02;99736.00;;;12.80;70.19
76124;BME280;65173;48.066;20.976;2023-04-15T13:08:05;99742.94;;;12.41;70.91
76124;BME280;65173;48.066;20.976;2023-04-15T13:11:08;99753.69;;;11.92;69.69
76124;BME280;65173;48.066;20.976;2023-04-15T13:14:10;99757.28;;;11.51;70.51
76124;BME280;65173;48.066;20.976;2023-04-15T13:17:14;99754.00;;;11.21;70.85
76124;BME280;65173;48.066;20.976;2023-04-15T13:20:20;99751.41;;;11.12;74.48
76124;BME280;65173;48.066;20.976;2023-04-15T13:23:23;99732.66;;;10.88;78.39
76124;BME280;65173;48.066;20.976;2023-04-15T13:26:26;99714.19;;;11.16;70.27
76124;BME280;65173;48.066;20.976;2023-04-15T13:29:29;99724.16;;;11.64;68.75
76124;BME280;65173;48.066;20.976;2023-04-15T13:32:32;99729.50;;;12.25;68.79
76124;BME280;65173;48.066;20.976;2023-04-15T13:35:35;99738.59;;;12.36;70.06
76124;BME280;65173;48.066;20.976;2023-04-15T13:38:38;99742.97;;;12.29;71.17
76124;BME280;65173;48.066;20.976;2023-04-15T13:41:41;99750.69;;;11.94;75.44
76124;BME280;65173;48.066;20.976;2023-04-15T13:44:44;99746.84;;;12.19;81.84
76124;BME280;65173;48.066;20.976;2023-04-15T13:47:47;99756.69;;;12.15;76.23
76124;BME280;65173;48.066;20.976;2023-04-15T13:50:50;99758.34;;;11.95;81.20
76124;BME280;65173;48.066;20.976;2023-04-15T13:53:52;99751.59;;;12.38;80.03
76124;BME280;65173;48.066;20.976;2023-04-15T13:56:55;99761.34;;;12.70;79.89
76124;BME280;65173;48.066;20.976;2023-04-15T13:59:59;99751.84;;;12.73;80.27
76124;BME280;65173;48.066;20.976;2023-04-15T14:03:02;99755.06;;;12.78;77.16
76124;BME280;65173;48.066;20.976;2023-04-15T14:06:05;99753.94;;;12.51;73.48
76124;BME280;65173;48.066;20.976;2023-04-15T14:09:09;99764.97;;;12.38;76.07
76124;BME280;65173;48.066;20.976;2023-04-15T14:12:12;99770.25;;;11.98;75.56
76124;BME280;65173;48.066;20.976;2023-04-15T14:15:15;99773.16;;;11.80;79.38
76124;BME280;65173;48.066;20.976;2023-04-15T14:18:18;99773.38;;;11.88;76.13
76124;BME280;65173;48.066;20.976;2023-04-15T14:21:21;99790.03;;;11.85;78.34
76124;BME280;65173;48.066;20.976;2023-04-15T14:24:23;99791.34;;;11.66;79.75
76124;BME280;65173;48.066;20.976;2023-04-15T14:27:27;99813.88;;;11.44;78.78
76124;BME280;65173;48.066;20.976;2023-04-15T14:30:30;99809.03;;;11.26;79.91
76124;BME280;65173;48.066;20.976;2023-04-15T14:33:33;99822.16;;;11.31;80.19
76124;BME280;65173;48.066;20.976;2023-04-15T14:36:35;99811.13;;;11.20;78.49
76124;BME280;65173;48.066;20.976;2023-04-15T14:39:39;99813.34;;;11.18;80.51
76124;BME280;65173;48.066;20.976;2023-04-15T14:42:42;99817.53;;;11.40;78.16
76124;BME280;65173;48.066;20.976;2023-04-15T14:45:45;99811.78;;;11.17;79.00
76124;BME280;65173;48.066;20.976;2023-04-15T14:48:48;99804.09;;;11.16;79.97
76124;BME280;65173;48.066;20.976;2023-04-15T14:51:51;99817.16;;;11.29;80.03
76124;BME280;65173;48.066;20.976;2023-04-15T14:54:55;99807.50;;;11.37;82.17
76124;BME280;65173;48.066;20.976;2023-04-15T14:57:58;99814.75;;;11.48;80.48
76124;BME280;65173;48.066;20.976;2023-04-15T15:01:01;99820.03;;;11.57;79.70
76124;BME280;65173;48.066;20.976;2023-04-15T15:04:04;99816.53;;;11.90;82.47
76124;BME280;65173;48.066;20.976;2023-04-15T15:07:08;99816.69;;;12.18;77.02
76124;BME280;65173;48.066;20.976;2023-04-15T15:10:10;99815.19;;;12.44;77.70
76124;BME280;65173;48.066;20.976;2023-04-15T15:13:14;99821.19;;;12.66;77.91
76124;BME280;65173;48.066;20.976;2023-04-15T15:16:17;99809.63;;;12.37;78.15
76124;BME280;65173;48.066;20.976;2023-04-15T15:19:20;99817.06;;;12.56;77.90
76124;BME280;65173;48.066;20.976;2023-04-15T15:22:23;99825.31;;;12.63;79.38
76124;BME280;65173;48.066;20.976;2023-04-15T15:25:27;99813.41;;;12.36;76.26
76124;BME280;65173;48.066;20.976;2023-04-15T15:28:30;99818.44;;;12.38;76.75
76124;BME280;65173;48.066;20.976;2023-04-15T15:31:35;99820.53;;;12.57;74.47
76124;BME280;65173;48.066;20.976;2023-04-15T15:34:38;99823.91;;;12.29;75.34
76124;BME280;65173;48.066;20.976;2023-04-15T15:37:41;99824.78;;;12.21;77.15
76124;BME280;65173;48.066;20.976;2023-04-15T15:40:45;99823.56;;;12.18;80.16
76124;BME280;65173;48.066;20.976;2023-04-15T15:43:48;99839.94;;;12.29;81.99
76124;BME280;65173;48.066;20.976;2023-04-15T15:46:50;99827.81;;;12.32;79.89
76124;BME280;65173;48.066;20.976;2023-04-15T15:49:54;99833.13;;;11.95;82.52
76124;BME280;65173;48.066;20.976;2023-04-15T15:52:57;99832.47;;;12.10;81.02
76124;BME280;65173;48.066;20.976;2023-04-15T15:56:00;99840.03;;;12.08;81.13
76124;BME280;65173;48.066;20.976;2023-04-15T15:59:05;99841.03;;;11.92;81.15
76124;BME280;65173;48.066;20.976;2023-04-15T16:02:12;99846.13;;;11.85;81.81
76124;BME280;65173;48.066;20.976;2023-04-15T16:05:18;99841.72;;;11.68;81.81
76124;BME280;65173;48.066;20.976;2023-04-15T16:08:21;99839.56;;;11.49;81.44